Baytown, TX (77523)

4:47 AM CDT on September 30, 2014 (GMT -0500)
Whispering Pines | Change Station
CLOSE
Current Station
Personal Weather Station
Location: Baytown, TX
Elevation: 36 ft
Nearby Weather Stations

Elev 36 ft 29.77 °N, 94.92 °W | Updated 13 seconds ago

Clear
Clear
69.1 °F
Feels Like 69.1 °F
N
0.0
Wind Variable Wind from North

Today
High -- | Low -- °F
--% Chance of Precip.
Yesterday
High -- | Low -- °F
Precip. -- in
7:12 AM 7:06 PM
Waxing Crescent, 35% visible
Pressure 29.88 in
Visibility 10.0 miles
Clouds Scattered Clouds 3500 ft
Dew Point 69 °F
Humidity 99%
Rainfall 0.00 in
Snow Depth Not available.
UV 0 out of 12
Pollen 7.80 out of 12
Ozone Good
PM2.5 Moderate
Flu Activity Not available.
METAR KEFD 300750Z 00000KT 10SM SCT035 24/23 A2988

More Conditions Fewer Conditions

Pressure 29.88 in
Visibility 10.0 miles
Clouds Scattered Clouds 3500 ft
Dew Point 69 °F
Humidity 99%
Rainfall 0.00 in
Snow Depth Not available.
UV 0 out of 12
Pollen 7.80 out of 12
Ozone Good
PM2.5 Moderate
Flu Activity Not available.
METAR KEFD 300750Z 00000KT 10SM SCT035 24/23 A2988

More Conditions Fewer Conditions

10-Day Weather Forecast

Almanac

Astronomy

Sep. 30, 2014 Rise Set
Actual Time 7:12 AM CDT 7:06 PM CDT
Civil Twilight 6:48 AM CDT 7:30 PM CDT
Nautical Twilight 6:20 AM CDT 7:57 PM CDT
Astronomical Twilight 5:53 AM CDT 8:25 PM CDT
Moon 1:01 PM CDT 11:56 PM CDT
Length of Visible Light 12h 41m
Length of Day
11h 53m
Tomorrow will be 1m 46s shorter.
Waxing Crescent, 35% of the Moon is Illuminated
Today
Waxing Crescent
Oct 1
First Quarter
Oct 8
Full
Oct 15
Last Quarter
Oct 23
New

Today's Extremes

State Highs State Lows

Community

WunderPhotos

Upload Photos

1,757,606 photos uploaded!

Nearby

Air Quality

  Air Quality AQ Index Pollutant
Yesterday Good
PM2.5
Yesterday Good
OZONE
Current Moderate
PM2.5
Current Good
OZONE
Tuesday Moderate
OZONE
Tuesday Good
PM10
Wednesday Good
OZONE
Wednesday Good
PM10
Thursday Good
OZONE
Thursday Good
PM10

Snow Depth

Station Depth Elevation
No new snow has been reported.

Earthquake Activity

City Distance Mag. Time & Date
No recent earthquake activity has been reported nearby.
Minimum magnitude displayed is 2.5.

Coastal Water Temperatures

Place Temperature
Eagle Point, TX 80.1 °F
USCG Freeport, TX 80.1 °F
Galveston Pier TX 79.0 °F
Galveston Bay (North Jetty), TX 80.1 °F
Rollover Pass, TX 78.1 °F

Nearby Weather Stations